Time;durP1;ratioP1;P1;durP2;ratioP2;P2;SDS_P1;SDS_P2;PMS_P1;PMS_P2;Temp;Humidity;BMP_temperature;BMP_pressure;BME280_temperature;BME280_humidity;BME280_pressure;Samples;Min_cycle;Max_cycle;Signal;HPM_P1;HPM_P2
2023/06/03 00:00:29;;;;;;;23.58;12.25;;;;;;;16.18;100.00;98516.13;4903270;29;20044;-92
2023/06/03 00:02:56;;;;;;;31.58;13.27;;;;;;;16.18;100.00;98523.31;4899968;29;20050;-92
2023/06/03 00:05:22;;;;;;;27.15;12.80;;;;;;;16.14;100.00;98532.47;4905746;29;20067;-94
2023/06/03 00:07:49;;;;;;;26.40;12.98;;;;;;;16.07;100.00;98528.38;4898424;29;20521;-91
2023/06/03 00:10:15;;;;;;;24.50;12.35;;;;;;;16.03;100.00;98533.03;4903213;29;20055;-93
2023/06/03 00:12:41;;;;;;;24.50;12.15;;;;;;;16.08;100.00;98544.38;4901640;29;20044;-93
2023/06/03 00:15:07;;;;;;;28.30;13.02;;;;;;;16.02;100.00;98539.34;4911876;29;20127;-92
2023/06/03 00:17:35;;;;;;;25.77;11.52;;;;;;;15.92;100.00;98524.72;4910824;29;20443;-93
2023/06/03 00:20:06;;;;;;;27.75;13.13;;;;;;;15.97;100.00;98541.41;4907483;29;20111;-92
2023/06/03 00:22:33;;;;;;;26.60;12.45;;;;;;;15.95;100.00;98533.44;4913986;29;20051;-92
2023/06/03 00:24:59;;;;;;;29.75;13.45;;;;;;;15.96;100.00;98535.19;4890380;29;20049;-93
2023/06/03 00:27:25;;;;;;;29.55;12.68;;;;;;;15.90;100.00;98526.59;4883928;29;20040;-91
2023/06/03 00:29:51;;;;;;;29.20;13.20;;;;;;;15.87;100.00;98548.19;4879409;29;20499;-91
2023/06/03 00:32:17;;;;;;;27.98;13.00;;;;;;;15.73;100.00;98533.69;4881862;29;20067;-93
2023/06/03 00:34:45;;;;;;;27.15;13.68;;;;;;;15.74;100.00;98539.91;4880123;29;20040;-93
2023/06/03 00:37:10;;;;;;;29.30;13.45;;;;;;;15.73;100.00;98543.56;4879323;29;20052;-90
2023/06/03 00:39:36;;;;;;;32.47;14.63;;;;;;;15.64;100.00;98528.78;4881114;29;20052;-93
2023/06/03 00:42:03;;;;;;;32.58;13.88;;;;;;;15.71;100.00;98532.00;4878624;29;20153;-91
2023/06/03 00:44:28;;;;;;;39.42;14.60;;;;;;;15.76;100.00;98538.03;4876838;29;20056;-92
2023/06/03 00:46:54;;;;;;;30.27;14.32;;;;;;;15.75;100.00;98541.66;4875445;29;20040;-94
2023/06/03 00:49:21;;;;;;;32.75;14.43;;;;;;;15.78;100.00;98544.19;4881374;29;20414;-93
2023/06/03 00:51:48;;;;;;;34.45;15.00;;;;;;;15.65;100.00;98526.97;4879416;29;20048;-91
2023/06/03 00:54:14;;;;;;;30.33;14.20;;;;;;;15.67;100.00;98544.69;4878945;29;20040;-93
2023/06/03 00:56:43;;;;;;;27.67;13.93;;;;;;;15.51;100.00;98525.88;4888503;29;20040;-92
2023/06/03 00:59:10;;;;;;;32.63;14.02;;;;;;;15.49;100.00;98526.91;4881750;29;20059;-93
2023/06/03 01:01:38;;;;;;;28.77;14.23;;;;;;;15.67;100.00;98546.53;4880269;29;20048;-93
2023/06/03 01:04:05;;;;;;;31.08;14.32;;;;;;;15.60;100.00;98522.69;4878069;29;20047;-93
2023/06/03 01:06:45;;;;;;;30.90;13.65;;;;;;;15.78;100.00;98555.75;4883767;29;20514;-93
2023/06/03 01:09:21;;;;;;;33.38;13.93;;;;;;;15.77;100.00;98554.03;4887588;29;20085;-93
2023/06/03 01:11:57;;;;;;;30.92;13.07;;;;;;;15.75;100.00;98561.28;4877800;29;20052;-92
2023/06/03 01:14:29;;;;;;;28.67;13.40;;;;;;;15.70;100.00;98544.56;4878452;29;20372;-92
2023/06/03 01:16:57;;;;;;;28.90;13.07;;;;;;;15.65;100.00;98545.72;4888343;29;20437;-93
2023/06/03 01:19:36;;;;;;;30.77;14.18;;;;;;;15.55;100.00;98558.75;4886442;29;20067;-92
2023/06/03 01:22:03;;;;;;;31.40;13.70;;;;;;;15.44;100.00;98534.28;4888467;29;20040;-92
2023/06/03 01:24:32;;;;;;;30.48;13.43;;;;;;;15.48;100.00;98546.59;4895036;29;20072;-93
2023/06/03 01:26:58;;;;;;;35.67;14.60;;;;;;;15.41;100.00;98530.81;4903994;29;20409;-91
2023/06/03 01:29:24;;;;;;;28.40;12.93;;;;;;;15.49;100.00;98542.97;4901915;29;20048;-93
2023/06/03 01:31:52;;;;;;;30.23;12.88;;;;;;;15.31;100.00;98529.56;4901920;29;20047;-93
2023/06/03 01:34:18;;;;;;;31.23;13.20;;;;;;;15.36;100.00;98532.88;4905581;29;20052;-92
2023/06/03 01:36:44;;;;;;;28.92;13.30;;;;;;;15.41;100.00;98551.38;4900201;29;20059;-92
2023/06/03 01:39:11;;;;;;;29.60;13.00;;;;;;;15.41;100.00;98554.06;4912686;29;20451;-93
2023/06/03 01:41:42;;;;;;;30.95;13.13;;;;;;;15.22;100.00;98519.28;4904154;29;20057;-93
2023/06/03 01:44:08;;;;;;;30.33;13.60;;;;;;;15.24;100.00;98519.22;4906599;29;20044;-93
2023/06/03 01:46:35;;;;;;;31.30;12.63;;;;;;;15.46;100.00;98549.38;4901497;29;20070;-93
2023/06/03 01:49:02;;;;;;;27.55;12.30;;;;;;;15.16;100.00;98509.75;4906337;29;20040;-93
2023/06/03 01:51:28;;;;;;;31.90;13.35;;;;;;;15.15;100.00;98541.97;4903083;29;20164;-93
2023/06/03 01:53:54;;;;;;;29.75;12.40;;;;;;;15.24;100.00;98559.41;4899657;29;20041;-93
2023/06/03 01:56:21;;;;;;;28.73;13.15;;;;;;;15.21;100.00;98565.78;4903145;29;20040;-92
2023/06/03 01:58:48;;;;;;;30.10;13.20;;;;;;;15.07;100.00;98552.19;4906462;29;20142;-93
2023/06/03 02:01:14;;;;;;;31.55;13.90;;;;;;;15.07;100.00;98546.81;4910449;29;20048;-92
2023/06/03 02:03:39;;;;;;;31.80;13.27;;;;;;;15.00;100.00;98535.56;4906538;29;20096;-93
2023/06/03 02:06:06;;;;;;;31.83;14.18;;;;;;;15.17;100.00;98559.69;4901046;29;20041;-93
2023/06/03 02:08:32;;;;;;;38.28;14.23;;;;;;;15.19;100.00;98565.84;4904026;29;20064;-94
2023/06/03 02:10:57;;;;;;;27.75;14.18;;;;;;;15.11;100.00;98561.81;4909000;29;20048;-93
2023/06/03 02:13:23;;;;;;;31.10;14.55;;;;;;;15.03;100.00;98542.56;4902288;29;20072;-94
2023/06/03 02:15:50;;;;;;;27.85;12.70;;;;;;;14.90;100.00;98534.28;4909549;29;20522;-94
2023/06/03 02:18:17;;;;;;;29.73;13.32;;;;;;;14.92;100.00;98532.38;4902198;29;20056;-93
2023/06/03 02:20:43;;;;;;;31.92;13.00;;;;;;;15.06;100.00;98563.84;4897703;29;20765;-92
2023/06/03 02:23:10;;;;;;;26.15;12.57;;;;;;;15.02;100.00;98563.13;4917677;29;20043;-93
2023/06/03 02:25:36;;;;;;;26.63;12.43;;;;;;;14.94;100.00;98552.81;4905782;29;20102;-93
2023/06/03 02:28:03;;;;;;;27.70;12.77;;;;;;;15.01;100.00;98545.34;4900231;29;20052;-92
2023/06/03 02:30:28;;;;;;;29.88;12.35;;;;;;;15.09;100.00;98561.00;4904905;29;20044;-94
2023/06/03 02:32:56;;;;;;;28.50;13.20;;;;;;;15.02;100.00;98549.72;4908224;29;20621;-93
2023/06/03 02:35:21;;;;;;;28.05;12.60;;;;;;;15.00;100.00;98547.13;4912777;29;20130;-93
2023/06/03 02:37:47;;;;;;;28.75;12.82;;;;;;;14.93;100.00;98551.03;4903055;29;20056;-93
2023/06/03 02:40:13;;;;;;;30.25;13.48;;;;;;;14.97;100.00;98558.00;4901340;29;20136;-94
2023/06/03 02:42:39;;;;;;;27.30;12.77;;;;;;;15.04;100.00;98571.94;4906895;29;20059;-94
2023/06/03 02:45:07;;;;;;;25.80;12.77;;;;;;;14.88;100.00;98545.06;4905349;29;20040;-92
2023/06/03 02:47:33;;;;;;;28.10;13.10;;;;;;;14.99;100.00;98565.97;4904006;29;20045;-94
2023/06/03 02:50:00;;;;;;;27.38;12.70;;;;;;;14.86;100.00;98552.28;4900010;29;20052;-93
2023/06/03 02:52:26;;;;;;;28.25;13.07;;;;;;;14.80;100.00;98533.84;4902550;29;20111;-92
2023/06/03 02:54:52;;;;;;;30.42;13.18;;;;;;;14.76;100.00;98526.91;4894245;29;20044;-92
2023/06/03 02:57:19;;;;;;;29.77;13.07;;;;;;;14.82;100.00;98540.00;4907114;29;20510;-92
2023/06/03 02:59:46;;;;;;;30.70;12.95;;;;;;;14.84;100.00;98545.28;4907438;29;20044;-94
2023/06/03 03:02:12;;;;;;;27.42;13.65;;;;;;;14.79;100.00;98532.97;4906548;29;20494;-93
2023/06/03 03:04:38;;;;;;;30.73;13.25;;;;;;;14.78;100.00;98525.88;4902624;29;20108;-94
2023/06/03 03:07:08;;;;;;;34.55;14.30;;;;;;;15.02;100.00;98557.78;4919260;29;20052;-94
2023/06/03 03:09:34;;;;;;;28.98;14.68;;;;;;;14.86;100.00;98536.22;4898573;29;20066;-93
2023/06/03 03:12:00;;;;;;;31.00;13.98;;;;;;;14.89;100.00;98544.09;4902990;29;20067;-94
2023/06/03 03:14:26;;;;;;;32.70;14.48;;;;;;;14.94;100.00;98554.59;4895049;29;20057;-93
2023/06/03 03:16:52;;;;;;;31.25;13.27;;;;;;;14.92;100.00;98565.38;4907258;29;20044;-94
2023/06/03 03:19:19;;;;;;;31.15;13.18;;;;;;;14.78;100.00;98535.72;4886847;29;20056;-92
2023/06/03 03:21:46;;;;;;;28.58;13.93;;;;;;;14.83;100.00;98559.59;4893524;29;20048;-94
2023/06/03 03:24:13;;;;;;;29.85;13.43;;;;;;;14.77;100.00;98567.00;4917978;29;20043;-93
2023/06/03 03:26:39;;;;;;;31.98;13.30;;;;;;;14.83;100.00;98565.81;4895708;29;20084;-93
2023/06/03 03:29:05;;;;;;;32.55;14.90;;;;;;;14.85;100.00;98558.56;4893897;29;20032;-92
2023/06/03 03:31:32;;;;;;;36.22;16.00;;;;;;;14.77;100.00;98536.69;4884794;29;20040;-94
2023/06/03 03:34:00;;;;;;;37.05;15.00;;;;;;;14.97;100.00;98567.84;4886459;29;20045;-91
2023/06/03 03:36:28;;;;;;;28.48;15.13;;;;;;;14.97;100.00;98566.03;4911988;29;20036;-93
2023/06/03 03:39:00;;;;;;;;;;;;;;;15.00;100.00;98587.28;4886511;29;20051;-94
2023/06/03 03:41:28;;;;;;;37.42;15.15;;;;;;;14.84;100.00;98566.69;4884691;29;19976;-92
2023/06/03 03:43:53;;;;;;;30.17;13.95;;;;;;;14.82;100.00;98550.69;4906707;29;20039;-94
2023/06/03 03:46:19;;;;;;;31.80;15.05;;;;;;;14.90;100.00;98561.91;4896038;29;20574;-92
2023/06/03 03:48:45;;;;;;;35.65;13.90;;;;;;;14.90;100.00;98556.56;4897046;29;20135;-93
2023/06/03 03:51:12;;;;;;;31.10;14.27;;;;;;;14.79;100.00;98545.50;4903133;29;20050;-93
2023/06/03 03:53:43;;;;;;;34.83;15.02;;;;;;;14.76;100.00;98542.97;4903368;29;20059;-94
2023/06/03 03:56:09;;;;;;;32.63;13.77;;;;;;;14.85;100.00;98563.94;4902993;29;20082;-93
2023/06/03 03:58:41;;;;;;;35.25;15.65;;;;;;;14.78;100.00;98547.28;4899648;29;20052;-94
2023/06/03 04:01:09;;;;;;;29.55;14.10;;;;;;;14.76;100.00;98551.00;4892832;29;20053;-94
2023/06/03 04:03:40;;;;;;;29.58;13.88;;;;;;;14.85;100.00;98560.38;4900391;29;20050;-94
2023/06/03 04:06:07;;;;;;;30.52;14.43;;;;;;;14.89;100.00;98567.34;4890154;29;20079;-93
2023/06/03 04:08:38;;;;;;;33.97;14.38;;;;;;;14.88;100.00;98560.25;4894845;29;20056;-93
2023/06/03 04:11:05;;;;;;;31.27;14.15;;;;;;;14.94;100.00;98559.94;4902741;29;20048;-94
2023/06/03 04:13:35;;;;;;;31.25;13.68;;;;;;;14.81;100.00;98535.56;4902559;29;20039;-92
2023/06/03 04:16:04;;;;;;;29.02;13.70;;;;;;;15.01;100.00;98564.09;4901080;29;20051;-94
2023/06/03 04:18:32;;;;;;;33.75;14.85;;;;;;;15.10;100.00;98570.78;4902902;29;20080;-95
2023/06/03 04:20:59;;;;;;;32.33;15.47;;;;;;;15.17;100.00;98572.22;4902720;29;20051;-94
2023/06/03 04:23:27;;;;;;;34.75;15.00;;;;;;;15.11;100.00;98564.47;4887731;29;20053;-92
2023/06/03 04:25:53;;;;;;;35.97;15.30;;;;;;;15.18;100.00;98571.31;4904648;29;20135;-94
2023/06/03 04:28:19;;;;;;;31.95;14.63;;;;;;;15.15;100.00;98577.66;4916034;29;20051;-93
2023/06/03 04:30:45;;;;;;;42.30;14.55;;;;;;;15.04;100.00;98579.13;4902625;29;20487;-93
2023/06/03 04:33:12;;;;;;;33.35;14.55;;;;;;;15.00;100.00;98584.59;4886265;29;20440;-95
2023/06/03 04:35:38;;;;;;;34.97;14.57;;;;;;;14.97;100.00;98563.34;4883926;29;20072;-94
2023/06/03 04:38:04;;;;;;;30.30;14.38;;;;;;;15.05;100.00;98568.34;4895452;29;20048;-93
2023/06/03 04:40:30;;;;;;;39.00;15.88;;;;;;;15.20;100.00;98583.66;4891738;29;20072;-92
2023/06/03 04:42:56;;;;;;;36.13;14.70;;;;;;;15.22;100.00;98572.84;4884070;29;20049;-92
2023/06/03 04:45:23;;;;;;;36.15;14.55;;;;;;;15.41;100.00;98583.53;4884078;29;20044;-94
2023/06/03 04:47:52;;;;;;;27.27;12.63;;;;;;;15.39;100.00;98564.84;4883939;29;20433;-92
2023/06/03 04:50:20;;;;;;;32.85;14.40;;;;;;;15.64;100.00;98570.81;4884250;29;20044;-94
2023/06/03 04:52:47;;;;;;;33.20;14.83;;;;;;;15.74;100.00;98577.44;4891144;29;20045;-94
2023/06/03 04:55:13;;;;;;;33.28;14.02;;;;;;;15.82;100.00;98577.94;4894612;29;20046;-94
2023/06/03 04:57:39;;;;;;;31.60;15.27;;;;;;;15.97;100.00;98552.13;4898834;29;20064;-95
2023/06/03 05:00:06;;;;;;;32.55;15.05;;;;;;;16.63;100.00;98592.41;4884339;29;20053;-93
2023/06/03 05:02:32;;;;;;;31.60;15.10;;;;;;;17.07;100.00;98568.53;4884452;29;20136;-93
2023/06/03 05:04:58;;;;;;;28.65;14.63;;;;;;;17.57;100.00;98587.16;4897367;29;20533;-91
2023/06/03 05:07:26;;;;;;;27.73;13.93;;;;;;;18.04;100.00;98598.75;4907102;29;20035;-93
2023/06/03 05:09:52;;;;;;;29.70;14.15;;;;;;;18.43;100.00;98590.09;4916685;29;20048;-94
2023/06/03 05:12:19;;;;;;;31.05;13.38;;;;;;;18.70;100.00;98570.44;4907944;29;20498;-94
2023/06/03 05:14:46;;;;;;;27.40;13.15;;;;;;;18.99;100.00;98598.25;4902063;29;20063;-93
2023/06/03 05:17:12;;;;;;;29.70;13.15;;;;;;;19.09;100.00;98571.56;4913105;29;20044;-94
2023/06/03 05:19:38;;;;;;;26.70;12.55;;;;;;;19.32;100.00;98572.75;4909071;29;20091;-92
2023/06/03 05:22:04;;;;;;;27.90;11.68;;;;;;;19.52;100.00;98597.53;4904289;29;20048;-95
2023/06/03 05:24:31;;;;;;;26.27;11.60;;;;;;;19.61;100.00;98588.84;4902531;29;20044;-93
2023/06/03 05:26:57;;;;;;;23.77;11.40;;;;;;;19.71;100.00;98565.69;4910198;29;20066;-93
2023/06/03 05:29:23;;;;;;;23.55;11.10;;;;;;;19.93;100.00;98557.03;4901193;29;20071;-93
2023/06/03 05:31:49;;;;;;;35.78;13.50;;;;;;;20.01;100.00;98567.25;4897817;29;20138;-93
2023/06/03 05:34:15;;;;;;;25.92;10.95;;;;;;;19.96;100.00;98577.53;4899099;29;20599;-93
2023/06/03 05:36:40;;;;;;;25.10;11.70;;;;;;;19.98;100.00;98591.78;4903330;29;20096;-94
2023/06/03 05:39:06;;;;;;;22.15;11.18;;;;;;;20.05;100.00;98560.69;4888005;29;20052;-91
2023/06/03 05:41:33;;;;;;;26.05;11.63;;;;;;;20.21;100.00;98564.06;4899247;29;20055;-94
2023/06/03 05:43:59;;;;;;;25.90;11.88;;;;;;;20.40;100.00;98563.63;4890260;29;20072;-93
2023/06/03 05:46:25;;;;;;;24.85;11.45;;;;;;;20.55;100.00;98574.31;4888469;29;20387;-92
2023/06/03 05:48:51;;;;;;;24.90;11.57;;;;;;;20.27;100.00;98584.34;4894585;29;20392;-91
2023/06/03 05:51:17;;;;;;;19.85;10.45;;;;;;;20.25;100.00;98578.19;4891814;29;20506;-92
2023/06/03 05:53:43;;;;;;;22.52;11.32;;;;;;;20.42;100.00;98575.16;4909656;29;20046;-92
2023/06/03 05:56:10;;;;;;;26.60;11.55;;;;;;;20.54;100.00;98578.84;4910771;29;20059;-95
2023/06/03 05:58:38;;;;;;;22.63;11.48;;;;;;;20.51;100.00;98587.16;4896343;29;20041;-93
2023/06/03 06:01:04;;;;;;;24.20;11.48;;;;;;;20.10;100.00;98564.81;4906122;29;20058;-94
2023/06/03 06:03:30;;;;;;;28.52;12.88;;;;;;;18.92;100.00;98588.84;4901003;29;20074;-95
2023/06/03 06:05:56;;;;;;;24.25;13.02;;;;;;;18.36;100.00;98598.63;4908113;29;20063;-92
2023/06/03 06:08:21;;;;;;;27.52;13.60;;;;;;;18.40;100.00;98589.41;4899463;29;20071;-93
2023/06/03 06:10:47;;;;;;;27.98;13.43;;;;;;;18.01;100.00;98574.72;4904067;29;20055;-93
2023/06/03 06:13:13;;;;;;;26.17;12.98;;;;;;;18.29;100.00;98581.97;4906393;29;20490;-93
2023/06/03 06:15:56;;;;;;;28.20;13.93;;;;;;;18.23;100.00;98599.34;4904530;29;20402;-94
2023/06/03 06:18:22;;;;;;;24.65;12.93;;;;;;;18.34;100.00;98573.63;4904330;29;20491;-93
2023/06/03 06:20:48;;;;;;;28.88;13.50;;;;;;;18.66;100.00;98606.63;4897239;29;20519;-91
2023/06/03 06:23:14;;;;;;;30.05;13.23;;;;;;;18.80;100.00;98595.00;4902430;29;20048;-93
2023/06/03 06:25:40;;;;;;;28.15;12.27;;;;;;;18.80;100.00;98587.81;4892975;29;20044;-93
2023/06/03 06:28:06;;;;;;;28.48;13.45;;;;;;;18.88;100.00;98611.53;4879749;29;20411;-92
2023/06/03 06:30:32;;;;;;;27.35;12.43;;;;;;;19.00;100.00;98589.22;4882713;29;20041;-94
2023/06/03 06:33:01;;;;;;;28.20;13.32;;;;;;;19.39;100.00;98574.09;4896487;29;20048;-93
2023/06/03 06:35:28;;;;;;;24.60;12.18;;;;;;;19.99;100.00;98583.56;4879250;29;20131;-90
2023/06/03 06:37:56;;;;;;;24.15;11.50;;;;;;;20.49;100.00;98595.41;4876977;29;20466;-94
2023/06/03 06:40:29;;;;;;;25.48;11.95;;;;;;;20.67;100.00;98581.59;4880003;29;20068;-94
2023/06/03 06:42:54;;;;;;;25.30;12.20;;;;;;;21.01;100.00;98580.00;4880676;29;20480;-92
2023/06/03 06:45:23;;;;;;;22.27;11.68;;;;;;;21.33;100.00;98603.81;4882227;29;20052;-91
2023/06/03 06:47:49;;;;;;;;;;;;;;;21.39;100.00;98595.25;4877545;29;20055;-91
2023/06/03 06:50:34;;;;;;;23.45;11.65;;;;;;;21.46;99.97;98574.91;4877759;29;20283;-91
2023/06/03 06:53:00;;;;;;;23.20;11.73;;;;;;;21.68;96.76;98589.53;4885390;29;20047;-92
2023/06/03 06:55:39;;;;;;;27.85;12.80;;;;;;;21.57;94.98;98565.97;4885871;29;20496;-93
2023/06/03 06:58:07;;;;;;;22.08;11.98;;;;;;;21.27;97.06;98588.03;4893853;29;20142;-91
2023/06/03 07:00:33;;;;;;;26.10;12.57;;;;;;;20.44;100.00;98575.06;4888206;29;20068;-92
2023/06/03 07:02:59;;;;;;;27.90;13.23;;;;;;;21.00;100.00;98602.59;4882338;29;20055;-91
2023/06/03 07:05:25;;;;;;;26.90;12.43;;;;;;;21.47;100.00;98595.56;4887153;29;20037;-91
2023/06/03 07:07:52;;;;;;;24.45;11.70;;;;;;;21.83;98.05;98598.31;4882597;29;20045;-91
2023/06/03 07:10:20;;;;;;;27.25;13.48;;;;;;;21.95;96.71;98592.84;4880538;29;20135;-91
2023/06/03 07:12:46;;;;;;;30.50;13.70;;;;;;;21.86;96.57;98589.97;4887564;29;20044;-92
2023/06/03 07:15:12;;;;;;;28.00;13.52;;;;;;;21.83;98.85;98591.06;4885310;29;20045;-92
2023/06/03 07:17:39;;;;;;;30.30;13.63;;;;;;;21.89;98.09;98598.72;4878567;29;20104;-93
2023/06/03 07:20:06;;;;;;;26.83;12.90;;;;;;;21.94;99.16;98566.72;4880212;29;20040;-92
2023/06/03 07:22:32;;;;;;;26.63;13.10;;;;;;;22.35;96.89;98583.50;4882531;29;20398;-91
2023/06/03 07:24:59;;;;;;;26.80;13.23;;;;;;;22.33;95.77;98588.16;4879650;29;20060;-91
2023/06/03 07:27:27;;;;;;;26.65;13.40;;;;;;;22.29;96.31;98579.44;4881447;29;20041;-92
2023/06/03 07:29:57;;;;;;;30.98;13.90;;;;;;;21.93;98.55;98580.41;4879760;29;20056;-92
2023/06/03 07:32:24;;;;;;;28.77;13.38;;;;;;;21.94;99.70;98588.38;4884621;29;20451;-91
2023/06/03 07:34:49;;;;;;;22.05;11.65;;;;;;;22.31;96.22;98576.59;4885422;29;20044;-91
2023/06/03 07:37:17;;;;;;;28.67;12.50;;;;;;;22.87;92.82;98598.31;4886382;29;20040;-92
2023/06/03 07:39:43;;;;;;;28.55;13.20;;;;;;;22.91;89.25;98579.97;4878111;29;20052;-92
2023/06/03 07:42:19;;;;;;;26.90;13.15;;;;;;;23.24;89.35;98587.22;4873226;29;20049;-93
2023/06/03 07:44:47;;;;;;;28.45;12.73;;;;;;;23.65;84.43;98582.06;4895194;29;20550;-92
2023/06/03 07:47:14;;;;;;;22.98;12.35;;;;;;;23.86;83.72;98580.28;4889532;29;20040;-92
2023/06/03 07:49:43;;;;;;;22.75;12.75;;;;;;;23.78;81.46;98601.78;4885867;29;20099;-91
2023/06/03 07:52:15;;;;;;;24.88;13.68;;;;;;;22.67;85.18;98602.63;4872139;29;20084;-93
2023/06/03 07:54:40;;;;;;;25.15;12.75;;;;;;;22.64;89.22;98602.88;4878560;29;20562;-90
2023/06/03 07:57:06;;;;;;;28.50;13.60;;;;;;;22.92;86.62;98609.69;4887193;29;20037;-92
2023/06/03 07:59:34;;;;;;;23.95;12.05;;;;;;;23.28;82.14;98601.41;4877325;29;20076;-92
2023/06/03 08:02:00;;;;;;;23.73;12.23;;;;;;;23.42;80.78;98590.28;4883696;29;20447;-92
2023/06/03 08:04:30;;;;;;;26.35;12.68;;;;;;;23.83;79.79;98602.25;4883610;29;20033;-92
2023/06/03 08:06:59;;;;;;;22.92;12.68;;;;;;;23.91;78.53;98597.03;4894957;29;20044;-92
2023/06/03 08:09:28;;;;;;;26.23;12.77;;;;;;;23.79;78.12;98589.97;4884436;29;20052;-93
2023/06/03 08:11:56;;;;;;;24.65;13.57;;;;;;;24.15;76.91;98602.22;4888834;29;20055;-92
2023/06/03 08:14:25;;;;;;;25.52;12.63;;;;;;;24.13;72.89;98587.06;4880502;29;20048;-92
2023/06/03 08:16:53;;;;;;;23.35;12.02;;;;;;;24.17;73.49;98593.97;4879666;29;20040;-92
2023/06/03 08:19:18;;;;;;;20.65;11.93;;;;;;;24.18;73.87;98591.13;4884220;29;20384;-92
2023/06/03 08:21:44;;;;;;;24.02;12.50;;;;;;;23.96;74.84;98575.81;4888587;29;20051;-93
2023/06/03 08:24:10;;;;;;;19.70;11.18;;;;;;;24.40;76.73;98601.00;4891514;29;20044;-93
2023/06/03 08:26:36;;;;;;;22.30;11.43;;;;;;;24.54;72.53;98586.22;4894309;29;20055;-94
2023/06/03 08:29:03;;;;;;;21.70;11.35;;;;;;;24.63;71.94;98600.00;4894876;29;20052;-93
2023/06/03 08:31:32;;;;;;;23.45;12.02;;;;;;;24.94;72.34;98603.59;4898674;29;20107;-92
2023/06/03 08:34:00;;;;;;;20.48;11.50;;;;;;;25.05;70.90;98602.63;4900394;29;20075;-92
2023/06/03 08:36:27;;;;;;;24.95;12.63;;;;;;;25.04;71.70;98582.72;4892503;29;20108;-92
2023/06/03 08:38:53;;;;;;;22.83;12.73;;;;;;;25.08;69.39;98589.63;4901327;29;20147;-92
2023/06/03 08:41:19;;;;;;;22.88;12.40;;;;;;;24.48;71.71;98584.03;4895885;29;20036;-93
2023/06/03 08:43:50;;;;;;;23.83;12.90;;;;;;;24.50;72.38;98602.94;4900166;29;20032;-93
2023/06/03 08:46:22;;;;;;;24.15;12.52;;;;;;;24.37;73.68;98600.38;4905901;29;20039;-93
2023/06/03 08:48:58;;;;;;;22.20;11.52;;;;;;;24.52;71.99;98576.47;4902320;29;20043;-93
2023/06/03 08:51:25;;;;;;;21.55;11.88;;;;;;;24.68;76.07;98587.75;4892574;29;20047;-92
2023/06/03 08:53:52;;;;;;;21.95;12.05;;;;;;;24.49;71.59;98595.78;4898624;29;20070;-93
2023/06/03 08:56:22;;;;;;;23.55;11.95;;;;;;;24.77;70.76;98592.34;4896988;29;20044;-93
2023/06/03 08:58:54;;;;;;;22.40;12.25;;;;;;;24.70;71.33;98568.56;4900193;29;20060;-92
2023/06/03 09:01:27;;;;;;;21.50;11.38;;;;;;;24.47;71.19;98589.59;4898024;29;20049;-94
2023/06/03 09:03:54;;;;;;;24.92;11.15;;;;;;;24.90;71.67;98594.84;4901161;29;20127;-93
2023/06/03 09:06:20;;;;;;;23.08;11.20;;;;;;;25.17;70.30;98591.50;4900629;29;20055;-92
2023/06/03 09:08:50;;;;;;;22.30;12.18;;;;;;;24.61;70.45;98586.53;4899523;29;20039;-94
2023/06/03 09:11:16;;;;;;;23.42;11.90;;;;;;;24.43;71.16;98589.00;4904480;29;20071;-92
2023/06/03 09:13:42;;;;;;;21.55;11.35;;;;;;;24.95;70.30;98586.28;4901414;29;20143;-94
2023/06/03 09:16:09;;;;;;;25.13;11.23;;;;;;;25.15;68.09;98554.56;4904779;29;20044;-93
2023/06/03 09:18:36;;;;;;;21.90;11.10;;;;;;;25.67;68.03;98581.63;4890749;29;20047;-92
2023/06/03 09:21:03;;;;;;;19.02;10.93;;;;;;;25.55;67.03;98579.03;4894994;29;20052;-93
2023/06/03 09:23:30;;;;;;;20.90;10.48;;;;;;;25.81;60.09;98581.22;4894309;29;20494;-94
2023/06/03 09:25:58;;;;;;;17.23;10.32;;;;;;;26.02;56.98;98573.78;4898383;29;20115;-93
2023/06/03 09:28:24;;;;;;;18.73;10.98;;;;;;;26.29;57.93;98574.91;4890103;29;20452;-93
2023/06/03 09:30:50;;;;;;;19.48;11.20;;;;;;;26.38;56.39;98595.81;4894034;29;20081;-91
2023/06/03 09:33:16;;;;;;;17.00;11.10;;;;;;;26.15;57.40;98584.34;4898076;29;20059;-93
2023/06/03 09:35:42;;;;;;;19.92;10.63;;;;;;;25.91;56.70;98578.50;4899368;29;20036;-93
2023/06/03 09:38:08;;;;;;;17.67;9.77;;;;;;;26.15;55.41;98576.19;4906786;29;20055;-94
2023/06/03 09:40:34;;;;;;;20.88;10.50;;;;;;;26.23;55.96;98570.88;4909445;29;20076;-94
2023/06/03 09:43:09;;;;;;;18.70;10.50;;;;;;;26.01;56.46;98577.50;4898631;29;20113;-93
2023/06/03 09:45:36;;;;;;;19.33;9.88;;;;;;;26.02;54.46;98586.53;4910595;29;20055;-93
2023/06/03 09:48:02;;;;;;;18.60;10.02;;;;;;;26.42;53.46;98585.50;4892118;29;20118;-93
2023/06/03 09:50:29;;;;;;;16.98;9.25;;;;;;;26.32;54.13;98580.03;4902259;29;20419;-94
2023/06/03 09:52:55;;;;;;;21.48;10.07;;;;;;;26.42;53.08;98569.13;4892944;29;20044;-92
2023/06/03 09:55:29;;;;;;;17.30;9.82;;;;;;;26.63;52.42;98566.22;4898550;29;20104;-92
2023/06/03 09:58:04;;;;;;;20.08;10.00;;;;;;;26.86;53.06;98568.59;4909659;29;20466;-94
2023/06/03 10:00:32;;;;;;;16.80;9.52;;;;;;;27.02;53.45;98577.84;4897049;29;20056;-94
2023/06/03 10:03:07;;;;;;;17.73;9.40;;;;;;;27.09;53.46;98567.19;4904576;29;20139;-93
2023/06/03 10:05:33;;;;;;;18.05;9.70;;;;;;;27.17;51.95;98560.97;4901958;29;20040;-93
2023/06/03 10:08:03;;;;;;;15.20;8.82;;;;;;;27.34;49.28;98572.97;4897884;29;20130;-94
2023/06/03 10:10:30;;;;;;;16.95;9.40;;;;;;;27.27;47.42;98561.81;4898230;29;20130;-94
2023/06/03 10:12:56;;;;;;;17.27;9.32;;;;;;;26.72;48.93;98543.53;4909555;29;20410;-93
2023/06/03 10:15:37;;;;;;;14.75;8.95;;;;;;;27.10;49.36;98554.41;4904309;29;20044;-94
2023/06/03 10:18:04;;;;;;;19.23;9.55;;;;;;;27.24;44.35;98556.66;4905941;29;20044;-90
2023/06/03 10:20:32;;;;;;;14.60;8.63;;;;;;;26.51;45.60;98542.84;4896601;29;20048;-92
2023/06/03 10:23:00;;;;;;;19.00;8.82;;;;;;;26.63;48.01;98525.31;4896200;29;20044;-93
2023/06/03 10:25:27;;;;;;;16.63;8.40;;;;;;;26.29;44.85;98539.47;4902987;29;20048;-94
2023/06/03 10:27:53;;;;;;;16.70;8.80;;;;;;;26.25;46.27;98546.19;4908659;29;20427;-93
2023/06/03 10:30:20;;;;;;;14.85;8.52;;;;;;;26.16;45.55;98517.09;4914029;29;20135;-93
2023/06/03 10:32:48;;;;;;;14.93;8.63;;;;;;;26.20;46.62;98543.06;4905000;29;20040;-94
2023/06/03 10:35:14;;;;;;;14.57;7.82;;;;;;;26.13;45.14;98536.47;4903404;29;20036;-95
2023/06/03 10:37:41;;;;;;;13.63;7.97;;;;;;;26.08;45.00;98519.69;4898214;29;20055;-95
2023/06/03 10:40:08;;;;;;;16.23;11.10;;;;;;;26.27;46.62;98533.28;4903918;29;20566;-94
2023/06/03 10:42:35;;;;;;;12.38;7.93;;;;;;;26.47;44.81;98539.53;4901809;29;20135;-93
2023/06/03 10:45:01;;;;;;;15.07;8.07;;;;;;;26.35;44.94;98516.19;4888373;29;20040;-94
2023/06/03 10:47:30;;;;;;;16.52;8.57;;;;;;;26.05;45.92;98528.19;4918104;29;20478;-93
2023/06/03 10:50:04;;;;;;;12.52;8.35;;;;;;;25.27;48.76;98539.88;4888081;29;20058;-94
2023/06/03 10:53:00;;;;;;;14.00;8.43;;;;;;;24.59;48.71;98545.03;4900972;29;20498;-93
2023/06/03 10:55:37;;;;;;;13.55;8.27;;;;;;;24.83;49.23;98531.13;4900294;29;20055;-93
2023/06/03 10:58:08;;;;;;;14.13;8.20;;;;;;;25.59;49.92;98538.75;4910377;29;20047;-93
2023/06/03 11:00:56;;;;;;;16.95;9.20;;;;;;;25.96;50.16;98529.91;4900424;29;20878;-92
2023/06/03 11:03:24;;;;;;;14.57;8.98;;;;;;;26.59;48.48;98521.19;4896008;29;20044;-93
2023/06/03 11:05:51;;;;;;;14.30;9.05;;;;;;;26.70;47.97;98501.91;4925382;29;20055;-93
2023/06/03 11:08:54;;;;;;;18.33;9.33;;;;;;;27.36;48.46;98519.91;4913410;29;20077;-93
2023/06/03 11:11:55;;;;;;;14.82;9.70;;;;;;;27.18;46.12;98519.88;4908608;29;20029;-93
2023/06/03 11:14:52;;;;;;;17.00;9.02;;;;;;;27.21;45.68;98511.38;4912758;29;20052;-93
2023/06/03 11:17:19;;;;;;;18.80;10.25;;;;;;;27.40;45.29;98512.28;4906181;29;20058;-93